ASL49U LYBE-LFPG
Flight info
| Callsign | ASL49U |
|---|---|
| Flight time | 2h 23m |
| Altitude | 38000 |
| Route | TUVAR DCT NOVLO DCT RUGOG DCT PEVAL DCT RODRU DCT OMETO DCT AOSTA DCT ORSUD DCT MOLUS DCT UNKIR DCT GIVRI DCT TINIL |
| Aircraft | A320/M-SDE3FGHIRWY/LB1 |
Departure
| Time | 2026-05-08 15:49 |
|---|---|
| Airport | Belgrade Nikola Tesla Airport (LYBE) |
Arrival
| Time | 2026-05-08 18:12 |
|---|---|
| Airport | Charles de Gaulle International Airport (LFPG) |
| Time | Latitude | Longitude | Altitude | Speed | Heading |
|---|---|---|---|---|---|
| 2026-05-08 15:17 | 44.82167 | 20.29065 | 308 ft | 0 kts | 242° |
| 2026-05-08 15:40 | 44.82168 | 20.29079 | 307 ft | 4 kts | 167° |
| 2026-05-08 15:41 | 44.82191 | 20.29072 | 308 ft | 4 kts | 200° |
| 2026-05-08 15:41 | 44.82210 | 20.29087 | 306 ft | 4 kts | 220° |
| 2026-05-08 15:41 | 44.82227 | 20.29114 | 306 ft | 4 kts | 249° |
| 2026-05-08 15:41 | 44.82228 | 20.29146 | 305 ft | 3 kts | 301° |
| 2026-05-08 15:42 | 44.82218 | 20.29169 | 305 ft | 0 kts | 302° |
| 2026-05-08 15:45 | 44.82221 | 20.29163 | 307 ft | 2 kts | 302° |
| 2026-05-08 15:45 | 44.82234 | 20.29138 | 306 ft | 4 kts | 311° |
| 2026-05-08 15:45 | 44.82267 | 20.29130 | 307 ft | 6 kts | 21° |
| 2026-05-08 15:45 | 44.82310 | 20.29135 | 307 ft | 7 kts | 332° |
| 2026-05-08 15:46 | 44.82347 | 20.29068 | 309 ft | 10 kts | 304° |
| 2026-05-08 15:46 | 44.82390 | 20.28969 | 308 ft | 13 kts | 301° |
| 2026-05-08 15:46 | 44.82456 | 20.28866 | 307 ft | 16 kts | 335° |
| 2026-05-08 15:46 | 44.82561 | 20.28903 | 309 ft | 17 kts | 40° |
| 2026-05-08 15:47 | 44.82620 | 20.29065 | 307 ft | 20 kts | 79° |
| 2026-05-08 15:47 | 44.82604 | 20.29200 | 307 ft | 7 kts | 122° |
| 2026-05-08 15:47 | 44.82603 | 20.29202 | 307 ft | 0 kts | 122° |
| 2026-05-08 15:48 | 44.82242 | 20.30020 | 308 ft | 114 kts | 122° |
| 2026-05-08 15:48 | 44.81729 | 20.31182 | 312 ft | 163 kts | 121° |
| 2026-05-08 15:48 | 44.81133 | 20.32522 | 879 ft | 160 kts | 120° |
| 2026-05-08 15:49 | 44.80544 | 20.33852 | 1503 ft | 160 kts | 120° |
| 2026-05-08 15:49 | 44.79932 | 20.35234 | 1884 ft | 177 kts | 120° |
| 2026-05-08 15:49 | 44.79241 | 20.36799 | 2194 ft | 199 kts | 120° |
| 2026-05-08 15:49 | 44.78466 | 20.38549 | 2479 ft | 223 kts | 121° |
| 2026-05-08 15:50 | 44.77601 | 20.40493 | 2995 ft | 241 kts | 120° |
| 2026-05-08 15:50 | 44.76699 | 20.42519 | 3864 ft | 246 kts | 121° |
| 2026-05-08 15:50 | 44.75783 | 20.44569 | 4781 ft | 249 kts | 120° |
| 2026-05-08 15:50 | 44.74854 | 20.46648 | 5674 ft | 254 kts | 121° |
| 2026-05-08 15:51 | 44.73873 | 20.48845 | 6258 ft | 272 kts | 121° |
| 2026-05-08 15:51 | 44.72855 | 20.51120 | 7075 ft | 277 kts | 122° |
| 2026-05-08 15:51 | 44.71818 | 20.53429 | 7953 ft | 281 kts | 123° |
| 2026-05-08 15:51 | 44.70769 | 20.55766 | 8815 ft | 285 kts | 123° |
| 2026-05-08 15:52 | 44.69706 | 20.58132 | 9673 ft | 288 kts | 123° |
| 2026-05-08 15:52 | 44.68393 | 20.60256 | 10442 ft | 291 kts | 145° |
| 2026-05-08 15:52 | 44.66534 | 20.61337 | 11207 ft | 293 kts | 172° |
| 2026-05-08 15:52 | 44.64503 | 20.61101 | 11981 ft | 297 kts | 195° |
| 2026-05-08 15:53 | 44.62629 | 20.59861 | 12742 ft | 303 kts | 215° |
| 2026-05-08 15:53 | 44.61198 | 20.57679 | 13489 ft | 310 kts | 238° |
| 2026-05-08 15:53 | 44.60508 | 20.54796 | 14148 ft | 317 kts | 264° |
| 2026-05-08 15:53 | 44.60746 | 20.51712 | 14786 ft | 323 kts | 289° |
| 2026-05-08 15:54 | 44.61720 | 20.48854 | 15397 ft | 329 kts | 297° |
| 2026-05-08 15:54 | 44.62820 | 20.45908 | 15536 ft | 352 kts | 297° |
| 2026-05-08 15:54 | 44.63989 | 20.42781 | 15666 ft | 372 kts | 297° |
| 2026-05-08 15:54 | 44.65218 | 20.39480 | 15889 ft | 388 kts | 297° |
| 2026-05-08 15:55 | 44.66473 | 20.36089 | 16392 ft | 394 kts | 297° |
| 2026-05-08 15:55 | 44.69012 | 20.29180 | 17606 ft | 402 kts | 297° |
| 2026-05-08 15:55 | 44.70297 | 20.25666 | 18240 ft | 406 kts | 296° |
| 2026-05-08 15:56 | 44.71576 | 20.22165 | 18796 ft | 409 kts | 296° |
| 2026-05-08 15:56 | 44.72883 | 20.18590 | 19399 ft | 412 kts | 296° |
| 2026-05-08 15:56 | 44.74197 | 20.14995 | 20005 ft | 415 kts | 296° |
| 2026-05-08 15:56 | 44.75540 | 20.11324 | 20586 ft | 418 kts | 296° |
| 2026-05-08 15:57 | 44.76874 | 20.07678 | 21158 ft | 420 kts | 296° |
| 2026-05-08 15:57 | 44.78194 | 20.04064 | 21712 ft | 421 kts | 296° |
| 2026-05-08 15:57 | 44.79531 | 20.00397 | 22291 ft | 422 kts | 296° |
| 2026-05-08 15:57 | 44.80871 | 19.96710 | 22806 ft | 424 kts | 296° |
| 2026-05-08 15:58 | 44.82215 | 19.93002 | 23300 ft | 426 kts | 296° |
| 2026-05-08 15:58 | 44.83571 | 19.89267 | 23750 ft | 429 kts | 296° |
| 2026-05-08 15:58 | 44.84931 | 19.85517 | 24135 ft | 431 kts | 296° |
| 2026-05-08 15:58 | 44.86295 | 19.81753 | 24525 ft | 433 kts | 296° |
| 2026-05-08 15:59 | 44.87662 | 19.77970 | 24920 ft | 434 kts | 295° |
| 2026-05-08 15:59 | 44.89034 | 19.74164 | 25327 ft | 435 kts | 295° |
| 2026-05-08 15:59 | 44.90406 | 19.70353 | 25738 ft | 437 kts | 295° |
| 2026-05-08 15:59 | 44.91780 | 19.66529 | 26117 ft | 438 kts | 295° |
| 2026-05-08 16:00 | 44.93158 | 19.62685 | 26507 ft | 440 kts | 295° |
| 2026-05-08 16:00 | 44.94544 | 19.58822 | 26885 ft | 441 kts | 295° |
| 2026-05-08 16:00 | 44.95932 | 19.54951 | 27260 ft | 443 kts | 295° |
| 2026-05-08 16:00 | 44.97321 | 19.51067 | 27627 ft | 445 kts | 295° |
| 2026-05-08 16:01 | 44.98420 | 19.47983 | 27909 ft | 446 kts | 294° |
| 2026-05-08 16:01 | 44.99815 | 19.44059 | 28272 ft | 448 kts | 294° |
| 2026-05-08 16:01 | 45.01217 | 19.40116 | 28604 ft | 450 kts | 294° |
| 2026-05-08 16:01 | 45.02026 | 19.37844 | 28793 ft | 451 kts | 294° |
| 2026-05-08 16:02 | 45.03437 | 19.33876 | 29121 ft | 452 kts | 294° |
| 2026-05-08 16:02 | 45.04854 | 19.29888 | 29433 ft | 454 kts | 294° |
| 2026-05-08 16:02 | 45.06270 | 19.25890 | 29721 ft | 456 kts | 294° |
| 2026-05-08 16:02 | 45.07687 | 19.21883 | 29992 ft | 457 kts | 294° |
| 2026-05-08 16:03 | 45.09108 | 19.17855 | 30216 ft | 458 kts | 294° |
| 2026-05-08 16:03 | 45.10531 | 19.13811 | 30418 ft | 460 kts | 294° |
| 2026-05-08 16:03 | 45.11903 | 19.09723 | 30601 ft | 459 kts | 288° |
| 2026-05-08 16:03 | 45.12756 | 19.05391 | 30790 ft | 456 kts | 276° |
| 2026-05-08 16:04 | 45.13064 | 19.00932 | 31029 ft | 454 kts | 272° |
| 2026-05-08 16:04 | 45.13313 | 18.96510 | 31566 ft | 445 kts | 272° |
| 2026-05-08 16:04 | 45.13557 | 18.92198 | 32300 ft | 436 kts | 272° |
| 2026-05-08 16:04 | 45.13799 | 18.87942 | 32856 ft | 432 kts | 272° |
| 2026-05-08 16:05 | 45.14037 | 18.83715 | 33365 ft | 429 kts | 271° |
| 2026-05-08 16:05 | 45.14270 | 18.79507 | 33824 ft | 428 kts | 271° |
| 2026-05-08 16:05 | 45.14499 | 18.75312 | 34251 ft | 426 kts | 271° |
| 2026-05-08 16:05 | 45.14724 | 18.71135 | 34667 ft | 424 kts | 271° |
| 2026-05-08 16:06 | 45.14946 | 18.66976 | 35059 ft | 423 kts | 271° |
| 2026-05-08 16:06 | 45.15168 | 18.62830 | 35435 ft | 421 kts | 271° |
| 2026-05-08 16:06 | 45.15389 | 18.58695 | 35798 ft | 420 kts | 271° |
| 2026-05-08 16:06 | 45.15609 | 18.54571 | 36151 ft | 419 kts | 271° |
| 2026-05-08 16:07 | 45.15828 | 18.50460 | 36495 ft | 418 kts | 272° |
| 2026-05-08 16:07 | 45.15973 | 18.47747 | 36718 ft | 417 kts | 272° |
| 2026-05-08 16:07 | 45.16190 | 18.43652 | 37051 ft | 416 kts | 272° |
| 2026-05-08 16:07 | 45.16405 | 18.39566 | 37383 ft | 415 kts | 272° |
| 2026-05-08 16:08 | 45.16593 | 18.35960 | 37668 ft | 415 kts | 272° |
| 2026-05-08 16:08 | 45.16866 | 18.30569 | 37982 ft | 415 kts | 272° |
| 2026-05-08 16:08 | 45.17210 | 18.23722 | 38019 ft | 416 kts | 272° |
| 2026-05-08 16:09 | 45.17616 | 18.15542 | 38019 ft | 416 kts | 272° |
| 2026-05-08 16:09 | 45.18024 | 18.07361 | 38018 ft | 416 kts | 272° |
| 2026-05-08 16:10 | 45.18419 | 17.99177 | 38019 ft | 416 kts | 271° |
| 2026-05-08 16:10 | 45.18810 | 17.90987 | 38030 ft | 416 kts | 272° |
| 2026-05-08 16:11 | 45.19194 | 17.82794 | 38033 ft | 417 kts | 272° |
| 2026-05-08 16:11 | 45.19572 | 17.74595 | 38039 ft | 417 kts | 272° |
| 2026-05-08 16:12 | 45.19946 | 17.66394 | 38041 ft | 417 kts | 271° |
| 2026-05-08 16:12 | 45.20319 | 17.58202 | 38056 ft | 417 kts | 272° |
| 2026-05-08 16:13 | 45.20685 | 17.50008 | 38042 ft | 416 kts | 272° |
| 2026-05-08 16:13 | 45.21044 | 17.41820 | 38041 ft | 416 kts | 271° |
| 2026-05-08 16:14 | 45.21391 | 17.33627 | 38044 ft | 416 kts | 271° |
| 2026-05-08 16:14 | 45.21728 | 17.25496 | 38045 ft | 416 kts | 271° |
| 2026-05-08 16:15 | 45.22069 | 17.17300 | 38062 ft | 416 kts | 271° |
| 2026-05-08 16:15 | 45.22399 | 17.09106 | 38057 ft | 416 kts | 271° |
| 2026-05-08 16:16 | 45.22729 | 17.00904 | 38056 ft | 416 kts | 271° |
| 2026-05-08 16:16 | 45.23046 | 16.92701 | 38055 ft | 416 kts | 271° |
| 2026-05-08 16:17 | 45.23344 | 16.84490 | 38058 ft | 417 kts | 271° |
| 2026-05-08 16:17 | 45.23636 | 16.76275 | 38071 ft | 417 kts | 271° |
| 2026-05-08 16:18 | 45.23921 | 16.68056 | 38067 ft | 417 kts | 271° |
| 2026-05-08 16:18 | 45.24202 | 16.59836 | 38065 ft | 417 kts | 271° |
| 2026-05-08 16:19 | 45.24476 | 16.51615 | 38063 ft | 417 kts | 271° |
| 2026-05-08 16:19 | 45.24741 | 16.43394 | 38062 ft | 417 kts | 271° |
| 2026-05-08 16:20 | 45.25009 | 16.35165 | 38069 ft | 418 kts | 271° |
| 2026-05-08 16:20 | 45.25270 | 16.26927 | 38064 ft | 418 kts | 271° |
| 2026-05-08 16:21 | 45.25515 | 16.18689 | 38065 ft | 417 kts | 271° |
| 2026-05-08 16:21 | 45.25756 | 16.10468 | 38066 ft | 417 kts | 270° |
| 2026-05-08 16:22 | 45.25994 | 16.02285 | 38062 ft | 418 kts | 271° |
| 2026-05-08 16:22 | 45.26226 | 15.94052 | 38075 ft | 417 kts | 270° |
| 2026-05-08 16:23 | 45.26459 | 15.85771 | 38069 ft | 417 kts | 270° |
| 2026-05-08 16:23 | 45.26677 | 15.77610 | 38056 ft | 417 kts | 270° |
| 2026-05-08 16:24 | 45.26890 | 15.69389 | 38056 ft | 417 kts | 270° |
| 2026-05-08 16:24 | 45.27105 | 15.61108 | 38075 ft | 417 kts | 270° |
| 2026-05-08 16:25 | 45.27312 | 15.52888 | 38066 ft | 416 kts | 270° |
| 2026-05-08 16:25 | 45.27504 | 15.44725 | 38070 ft | 416 kts | 270° |
| 2026-05-08 16:26 | 45.27687 | 15.36515 | 38071 ft | 416 kts | 270° |
| 2026-05-08 16:26 | 45.27875 | 15.28306 | 38067 ft | 416 kts | 270° |
| 2026-05-08 16:27 | 45.28083 | 15.20096 | 38070 ft | 416 kts | 270° |
| 2026-05-08 16:27 | 45.28282 | 15.11888 | 38067 ft | 416 kts | 270° |
| 2026-05-08 16:28 | 45.28476 | 15.03671 | 38061 ft | 416 kts | 270° |
| 2026-05-08 16:28 | 45.28657 | 14.95460 | 38057 ft | 416 kts | 270° |
| 2026-05-08 16:29 | 45.28834 | 14.87247 | 38056 ft | 417 kts | 270° |
| 2026-05-08 16:29 | 45.29008 | 14.79020 | 38045 ft | 416 kts | 270° |
| 2026-05-08 16:30 | 45.29170 | 14.70793 | 38049 ft | 417 kts | 270° |
| 2026-05-08 16:30 | 45.29332 | 14.62567 | 38044 ft | 417 kts | 270° |
| 2026-05-08 16:31 | 45.29486 | 14.54333 | 38042 ft | 417 kts | 270° |
| 2026-05-08 16:31 | 45.29638 | 14.46101 | 38043 ft | 417 kts | 270° |
| 2026-05-08 16:32 | 45.29786 | 14.37859 | 38042 ft | 418 kts | 269° |
| 2026-05-08 16:32 | 45.29920 | 14.29601 | 38047 ft | 419 kts | 269° |
| 2026-05-08 16:33 | 45.30049 | 14.21324 | 38050 ft | 419 kts | 269° |
| 2026-05-08 16:33 | 45.30174 | 14.13050 | 38049 ft | 419 kts | 269° |
| 2026-05-08 16:34 | 45.30294 | 14.04819 | 38049 ft | 419 kts | 269° |
| 2026-05-08 16:34 | 45.30406 | 13.96535 | 38042 ft | 420 kts | 269° |
| 2026-05-08 16:35 | 45.30516 | 13.88242 | 38043 ft | 420 kts | 269° |
| 2026-05-08 16:35 | 45.30622 | 13.79938 | 38046 ft | 420 kts | 269° |
| 2026-05-08 16:36 | 45.30716 | 13.71628 | 38044 ft | 421 kts | 269° |
| 2026-05-08 16:36 | 45.30804 | 13.63314 | 38060 ft | 421 kts | 269° |
| 2026-05-08 16:37 | 45.30887 | 13.55005 | 38061 ft | 421 kts | 269° |
| 2026-05-08 16:37 | 45.30971 | 13.46697 | 38057 ft | 421 kts | 269° |
| 2026-05-08 16:38 | 45.31050 | 13.38380 | 38055 ft | 421 kts | 269° |
| 2026-05-08 16:38 | 45.31109 | 13.30073 | 38056 ft | 421 kts | 269° |
| 2026-05-08 16:39 | 45.31465 | 13.21777 | 38070 ft | 423 kts | 277° |
| 2026-05-08 16:39 | 45.32381 | 13.13522 | 38064 ft | 423 kts | 277° |
| 2026-05-08 16:40 | 45.33289 | 13.05272 | 38063 ft | 423 kts | 277° |
| 2026-05-08 16:40 | 45.34184 | 12.97015 | 38063 ft | 423 kts | 276° |
| 2026-05-08 16:41 | 45.35075 | 12.88754 | 38055 ft | 423 kts | 276° |
| 2026-05-08 16:42 | 45.36401 | 12.76353 | 38064 ft | 423 kts | 276° |
| 2026-05-08 16:42 | 45.37275 | 12.68088 | 38058 ft | 423 kts | 276° |
| 2026-05-08 16:43 | 45.38151 | 12.59822 | 38053 ft | 422 kts | 276° |
| 2026-05-08 16:43 | 45.39020 | 12.51559 | 38054 ft | 422 kts | 276° |
| 2026-05-08 16:44 | 45.39873 | 12.43291 | 38063 ft | 423 kts | 276° |
| 2026-05-08 16:44 | 45.40711 | 12.35064 | 38056 ft | 423 kts | 276° |
| 2026-05-08 16:45 | 45.41556 | 12.26783 | 38052 ft | 423 kts | 276° |
| 2026-05-08 16:45 | 45.42392 | 12.18498 | 38084 ft | 423 kts | 276° |
| 2026-05-08 16:46 | 45.43225 | 12.10213 | 38094 ft | 423 kts | 276° |
| 2026-05-08 16:46 | 45.44055 | 12.01925 | 38098 ft | 423 kts | 276° |
| 2026-05-08 16:47 | 45.44881 | 11.93639 | 38096 ft | 423 kts | 276° |
| 2026-05-08 16:47 | 45.45704 | 11.85352 | 38095 ft | 423 kts | 276° |
| 2026-05-08 16:48 | 45.46514 | 11.77066 | 38095 ft | 422 kts | 276° |
| 2026-05-08 16:48 | 45.47312 | 11.68778 | 38098 ft | 422 kts | 276° |
| 2026-05-08 16:49 | 45.48099 | 11.60502 | 38096 ft | 421 kts | 276° |
| 2026-05-08 16:49 | 45.48891 | 11.52247 | 38093 ft | 420 kts | 276° |
| 2026-05-08 16:50 | 45.49675 | 11.44000 | 38092 ft | 420 kts | 276° |
| 2026-05-08 16:50 | 45.50450 | 11.35754 | 38088 ft | 420 kts | 276° |
| 2026-05-08 16:51 | 45.51221 | 11.27512 | 38089 ft | 419 kts | 276° |
| 2026-05-08 16:51 | 45.51978 | 11.19271 | 38075 ft | 419 kts | 276° |
| 2026-05-08 16:52 | 45.52732 | 11.11023 | 38064 ft | 419 kts | 276° |
| 2026-05-08 16:52 | 45.53484 | 11.02773 | 38062 ft | 419 kts | 276° |
| 2026-05-08 16:53 | 45.54597 | 10.90455 | 38062 ft | 419 kts | 276° |
| 2026-05-08 16:53 | 45.55214 | 10.83545 | 38062 ft | 420 kts | 276° |
| 2026-05-08 16:54 | 45.56062 | 10.73942 | 38066 ft | 420 kts | 276° |
| 2026-05-08 16:54 | 45.56661 | 10.67017 | 38068 ft | 419 kts | 276° |
| 2026-05-08 16:55 | 45.57381 | 10.58758 | 38068 ft | 420 kts | 276° |
| 2026-05-08 16:55 | 45.58095 | 10.50497 | 38069 ft | 419 kts | 276° |
| 2026-05-08 16:56 | 45.58802 | 10.42242 | 38067 ft | 419 kts | 276° |
| 2026-05-08 16:56 | 45.59509 | 10.33981 | 38062 ft | 419 kts | 276° |
| 2026-05-08 16:57 | 45.60206 | 10.25724 | 38059 ft | 419 kts | 276° |
| 2026-05-08 16:57 | 45.60889 | 10.17468 | 38067 ft | 418 kts | 276° |
| 2026-05-08 16:58 | 45.61568 | 10.09221 | 38063 ft | 418 kts | 276° |
| 2026-05-08 16:58 | 45.62239 | 10.00986 | 38079 ft | 417 kts | 276° |
| 2026-05-08 16:59 | 45.62908 | 9.92750 | 38080 ft | 417 kts | 276° |
| 2026-05-08 16:59 | 45.63573 | 9.84514 | 38080 ft | 417 kts | 276° |
| 2026-05-08 17:00 | 45.64231 | 9.76273 | 38081 ft | 417 kts | 276° |
| 2026-05-08 17:00 | 45.64876 | 9.68039 | 38082 ft | 417 kts | 276° |
| 2026-05-08 17:01 | 45.65508 | 9.59854 | 38084 ft | 417 kts | 276° |
| 2026-05-08 17:01 | 45.66144 | 9.51620 | 38081 ft | 417 kts | 276° |
| 2026-05-08 17:02 | 45.66780 | 9.43390 | 38079 ft | 417 kts | 276° |
| 2026-05-08 17:02 | 45.67376 | 9.35144 | 38063 ft | 416 kts | 275° |
| 2026-05-08 17:03 | 45.67819 | 9.26894 | 38062 ft | 416 kts | 274° |
| 2026-05-08 17:03 | 45.68213 | 9.18636 | 38060 ft | 416 kts | 274° |
| 2026-05-08 17:04 | 45.68626 | 9.10380 | 38060 ft | 416 kts | 274° |
| 2026-05-08 17:04 | 45.69060 | 9.02137 | 38064 ft | 416 kts | 274° |
| 2026-05-08 17:05 | 45.69491 | 8.93874 | 38072 ft | 417 kts | 274° |
| 2026-05-08 17:05 | 45.69909 | 8.85602 | 38073 ft | 417 kts | 274° |
| 2026-05-08 17:06 | 45.70316 | 8.77315 | 38072 ft | 418 kts | 274° |
| 2026-05-08 17:06 | 45.70719 | 8.69025 | 38075 ft | 418 kts | 274° |
| 2026-05-08 17:07 | 45.71121 | 8.60739 | 38087 ft | 418 kts | 274° |
| 2026-05-08 17:07 | 45.71512 | 8.52454 | 38085 ft | 417 kts | 274° |
| 2026-05-08 17:08 | 45.71895 | 8.44179 | 38089 ft | 416 kts | 274° |
| 2026-05-08 17:08 | 45.72277 | 8.35915 | 38088 ft | 416 kts | 274° |
| 2026-05-08 17:09 | 45.72652 | 8.27644 | 38088 ft | 416 kts | 274° |
| 2026-05-08 17:09 | 45.73024 | 8.19383 | 38083 ft | 416 kts | 274° |
| 2026-05-08 17:10 | 45.73385 | 8.11113 | 38088 ft | 417 kts | 273° |
| 2026-05-08 17:10 | 45.73748 | 8.02830 | 38086 ft | 417 kts | 275° |
| 2026-05-08 17:11 | 45.74397 | 7.94571 | 38089 ft | 417 kts | 277° |
| 2026-05-08 17:11 | 45.75209 | 7.86403 | 38105 ft | 417 kts | 277° |
| 2026-05-08 17:12 | 45.75988 | 7.78111 | 38099 ft | 417 kts | 277° |
| 2026-05-08 17:12 | 45.76697 | 7.69873 | 38096 ft | 416 kts | 277° |
| 2026-05-08 17:13 | 45.77383 | 7.61640 | 38101 ft | 416 kts | 277° |
| 2026-05-08 17:13 | 45.78069 | 7.53451 | 38101 ft | 416 kts | 277° |
| 2026-05-08 17:14 | 45.78759 | 7.45220 | 38041 ft | 416 kts | 277° |
| 2026-05-08 17:14 | 45.80218 | 7.37242 | 38047 ft | 417 kts | 295° |
| 2026-05-08 17:15 | 45.81719 | 7.33688 | 38043 ft | 419 kts | 306° |
| 2026-05-08 17:15 | 45.83708 | 7.30615 | 38047 ft | 423 kts | 316° |
| 2026-05-08 17:15 | 45.88489 | 7.25635 | 38053 ft | 425 kts | 321° |
| 2026-05-08 17:16 | 45.93310 | 7.20714 | 38061 ft | 426 kts | 321° |
| 2026-05-08 17:16 | 45.98131 | 7.15779 | 38043 ft | 426 kts | 321° |
| 2026-05-08 17:17 | 46.02961 | 7.10836 | 38049 ft | 426 kts | 321° |
| 2026-05-08 17:17 | 46.07769 | 7.05900 | 38046 ft | 423 kts | 321° |
| 2026-05-08 17:18 | 46.12559 | 7.00982 | 38047 ft | 422 kts | 321° |
| 2026-05-08 17:18 | 46.17331 | 6.96064 | 38059 ft | 422 kts | 321° |
| 2026-05-08 17:19 | 46.22092 | 6.91142 | 38041 ft | 420 kts | 321° |
| 2026-05-08 17:19 | 46.26839 | 6.86226 | 38035 ft | 420 kts | 321° |
| 2026-05-08 17:20 | 46.31589 | 6.81296 | 38024 ft | 421 kts | 321° |
| 2026-05-08 17:20 | 46.36349 | 6.76349 | 38021 ft | 421 kts | 321° |
| 2026-05-08 17:21 | 46.41113 | 6.71376 | 38015 ft | 422 kts | 320° |
| 2026-05-08 17:21 | 46.45257 | 6.65492 | 38013 ft | 416 kts | 303° |
| 2026-05-08 17:22 | 46.48211 | 6.58301 | 37998 ft | 415 kts | 298° |
| 2026-05-08 17:22 | 46.51080 | 6.51032 | 38010 ft | 415 kts | 298° |
| 2026-05-08 17:23 | 46.53936 | 6.43801 | 38012 ft | 416 kts | 298° |
| 2026-05-08 17:23 | 46.56812 | 6.36512 | 38021 ft | 416 kts | 298° |
| 2026-05-08 17:24 | 46.59677 | 6.29212 | 38029 ft | 416 kts | 298° |
| 2026-05-08 17:24 | 46.62535 | 6.21904 | 38033 ft | 416 kts | 298° |
| 2026-05-08 17:25 | 46.65390 | 6.14582 | 38033 ft | 416 kts | 298° |
| 2026-05-08 17:25 | 46.68236 | 6.07250 | 38028 ft | 416 kts | 297° |
| 2026-05-08 17:26 | 46.71074 | 5.99921 | 38023 ft | 415 kts | 297° |
| 2026-05-08 17:26 | 46.73914 | 5.92599 | 38024 ft | 415 kts | 297° |
| 2026-05-08 17:27 | 46.76745 | 5.85254 | 38018 ft | 415 kts | 297° |
| 2026-05-08 17:27 | 46.79573 | 5.77917 | 38020 ft | 416 kts | 300° |
| 2026-05-08 17:28 | 46.83404 | 5.71584 | 38027 ft | 421 kts | 319° |
| 2026-05-08 17:28 | 46.88473 | 5.67169 | 38013 ft | 425 kts | 328° |
| 2026-05-08 17:29 | 46.93666 | 5.63021 | 38012 ft | 426 kts | 327° |
| 2026-05-08 17:29 | 46.98854 | 5.58841 | 38014 ft | 426 kts | 327° |
| 2026-05-08 17:30 | 47.04037 | 5.54657 | 38013 ft | 426 kts | 327° |
| 2026-05-08 17:30 | 47.09226 | 5.50457 | 38026 ft | 426 kts | 328° |
| 2026-05-08 17:31 | 47.14419 | 5.46260 | 38028 ft | 426 kts | 328° |
| 2026-05-08 17:31 | 47.19604 | 5.42056 | 38018 ft | 426 kts | 327° |
| 2026-05-08 17:32 | 47.24790 | 5.37834 | 38015 ft | 426 kts | 327° |
| 2026-05-08 17:32 | 47.29965 | 5.33595 | 38034 ft | 426 kts | 327° |
| 2026-05-08 17:33 | 47.35119 | 5.29399 | 38029 ft | 426 kts | 328° |
| 2026-05-08 17:33 | 47.40306 | 5.25172 | 38027 ft | 426 kts | 327° |
| 2026-05-08 17:34 | 47.45484 | 5.20919 | 37943 ft | 426 kts | 327° |
| 2026-05-08 17:34 | 47.48066 | 5.18795 | 37599 ft | 424 kts | 327° |
| 2026-05-08 17:34 | 47.50639 | 5.16680 | 37012 ft | 422 kts | 327° |
| 2026-05-08 17:35 | 47.53204 | 5.14568 | 36342 ft | 422 kts | 327° |
| 2026-05-08 17:35 | 47.55765 | 5.12454 | 35657 ft | 422 kts | 327° |
| 2026-05-08 17:35 | 47.58319 | 5.10290 | 34899 ft | 422 kts | 323° |
| 2026-05-08 17:35 | 47.60656 | 5.07688 | 34069 ft | 421 kts | 316° |
| 2026-05-08 17:36 | 47.62893 | 5.04878 | 33039 ft | 423 kts | 316° |
| 2026-05-08 17:36 | 47.65140 | 5.02055 | 32060 ft | 424 kts | 317° |
| 2026-05-08 17:36 | 47.67394 | 4.99228 | 31113 ft | 425 kts | 317° |
| 2026-05-08 17:36 | 47.69652 | 4.96393 | 30085 ft | 427 kts | 317° |
| 2026-05-08 17:37 | 47.71921 | 4.93538 | 28822 ft | 429 kts | 317° |
| 2026-05-08 17:37 | 47.74195 | 4.90673 | 27720 ft | 428 kts | 317° |
| 2026-05-08 17:37 | 47.76448 | 4.87829 | 27223 ft | 421 kts | 317° |
| 2026-05-08 17:37 | 47.78680 | 4.85004 | 26968 ft | 421 kts | 317° |
| 2026-05-08 17:38 | 47.80905 | 4.82175 | 26711 ft | 420 kts | 317° |
| 2026-05-08 17:38 | 47.83114 | 4.79346 | 26457 ft | 419 kts | 317° |
| 2026-05-08 17:38 | 47.85325 | 4.76529 | 26206 ft | 418 kts | 317° |
| 2026-05-08 17:38 | 47.87531 | 4.73720 | 25957 ft | 417 kts | 317° |
| 2026-05-08 17:39 | 47.89729 | 4.70920 | 25709 ft | 415 kts | 317° |
| 2026-05-08 17:39 | 47.91891 | 4.68154 | 25491 ft | 414 kts | 316° |
| 2026-05-08 17:39 | 47.94077 | 4.65363 | 25274 ft | 414 kts | 317° |
| 2026-05-08 17:39 | 47.96256 | 4.62581 | 25111 ft | 411 kts | 317° |
| 2026-05-08 17:40 | 47.98417 | 4.59816 | 24827 ft | 408 kts | 317° |
| 2026-05-08 17:40 | 48.00573 | 4.57055 | 24550 ft | 407 kts | 317° |
| 2026-05-08 17:40 | 48.02715 | 4.54313 | 24275 ft | 405 kts | 317° |
| 2026-05-08 17:40 | 48.04163 | 4.52456 | 24081 ft | 405 kts | 317° |
| 2026-05-08 17:41 | 48.06262 | 4.49756 | 23818 ft | 403 kts | 317° |
| 2026-05-08 17:41 | 48.08391 | 4.47009 | 23534 ft | 402 kts | 317° |
| 2026-05-08 17:41 | 48.10498 | 4.44285 | 23239 ft | 401 kts | 317° |
| 2026-05-08 17:41 | 48.12606 | 4.41561 | 22971 ft | 401 kts | 317° |
| 2026-05-08 17:42 | 48.14714 | 4.38839 | 22716 ft | 401 kts | 316° |
| 2026-05-08 17:42 | 48.16830 | 4.36104 | 22427 ft | 403 kts | 316° |
| 2026-05-08 17:42 | 48.18953 | 4.33356 | 22160 ft | 403 kts | 316° |
| 2026-05-08 17:42 | 48.21079 | 4.30607 | 21885 ft | 403 kts | 316° |
| 2026-05-08 17:43 | 48.23197 | 4.27866 | 21614 ft | 402 kts | 316° |
| 2026-05-08 17:43 | 48.25294 | 4.25135 | 21335 ft | 398 kts | 316° |
| 2026-05-08 17:43 | 48.27200 | 4.22156 | 21075 ft | 393 kts | 308° |
| 2026-05-08 17:43 | 48.28931 | 4.18983 | 20811 ft | 393 kts | 307° |
| 2026-05-08 17:44 | 48.30661 | 4.15820 | 20542 ft | 392 kts | 307° |
| 2026-05-08 17:44 | 48.32392 | 4.12660 | 20278 ft | 392 kts | 307° |
| 2026-05-08 17:44 | 48.34118 | 4.09517 | 20004 ft | 385 kts | 307° |
| 2026-05-08 17:44 | 48.35811 | 4.06439 | 19641 ft | 377 kts | 307° |
| 2026-05-08 17:45 | 48.37475 | 4.03405 | 19455 ft | 378 kts | 308° |
| 2026-05-08 17:45 | 48.39148 | 4.00346 | 19114 ft | 378 kts | 307° |
| 2026-05-08 17:45 | 48.40811 | 3.97296 | 18764 ft | 377 kts | 307° |
| 2026-05-08 17:45 | 48.42478 | 3.94233 | 18422 ft | 377 kts | 307° |
| 2026-05-08 17:46 | 48.44137 | 3.91185 | 18050 ft | 376 kts | 307° |
| 2026-05-08 17:46 | 48.45794 | 3.88142 | 17694 ft | 375 kts | 307° |
| 2026-05-08 17:46 | 48.47447 | 3.85106 | 17357 ft | 374 kts | 307° |
| 2026-05-08 17:46 | 48.49094 | 3.82076 | 17014 ft | 373 kts | 307° |
| 2026-05-08 17:47 | 48.50729 | 3.79061 | 16675 ft | 371 kts | 307° |
| 2026-05-08 17:47 | 48.52361 | 3.76049 | 16323 ft | 370 kts | 307° |
| 2026-05-08 17:47 | 48.53960 | 3.73022 | 15995 ft | 367 kts | 303° |
| 2026-05-08 17:47 | 48.54887 | 3.70899 | 15863 ft | 366 kts | 301° |
| 2026-05-08 17:48 | 48.56738 | 3.66580 | 15626 ft | 366 kts | 301° |
| 2026-05-08 17:48 | 48.58102 | 3.63407 | 15454 ft | 365 kts | 301° |
| 2026-05-08 17:48 | 48.59496 | 3.60157 | 15248 ft | 364 kts | 301° |
| 2026-05-08 17:48 | 48.60856 | 3.56981 | 15065 ft | 364 kts | 301° |
| 2026-05-08 17:49 | 48.62231 | 3.53773 | 14845 ft | 364 kts | 301° |
| 2026-05-08 17:49 | 48.63607 | 3.50562 | 14609 ft | 363 kts | 301° |
| 2026-05-08 17:49 | 48.64977 | 3.47369 | 14383 ft | 362 kts | 301° |
| 2026-05-08 17:49 | 48.66345 | 3.44178 | 14154 ft | 361 kts | 301° |
| 2026-05-08 17:50 | 48.67706 | 3.40993 | 13932 ft | 360 kts | 301° |
| 2026-05-08 17:50 | 48.69063 | 3.37808 | 13685 ft | 359 kts | 301° |
| 2026-05-08 17:50 | 48.70415 | 3.34632 | 13450 ft | 358 kts | 301° |
| 2026-05-08 17:50 | 48.71761 | 3.31472 | 13224 ft | 357 kts | 301° |
| 2026-05-08 17:51 | 48.73103 | 3.28315 | 13005 ft | 356 kts | 301° |
| 2026-05-08 17:51 | 48.74437 | 3.25171 | 12781 ft | 354 kts | 301° |
| 2026-05-08 17:51 | 48.75764 | 3.22037 | 12555 ft | 353 kts | 301° |
| 2026-05-08 17:51 | 48.77089 | 3.18903 | 12333 ft | 352 kts | 301° |
| 2026-05-08 17:52 | 48.78404 | 3.15787 | 12119 ft | 351 kts | 301° |
| 2026-05-08 17:52 | 48.79715 | 3.12676 | 11898 ft | 349 kts | 301° |
| 2026-05-08 17:52 | 48.82322 | 3.06480 | 11451 ft | 347 kts | 300° |
| 2026-05-08 17:53 | 48.83623 | 3.03396 | 11240 ft | 346 kts | 300° |
| 2026-05-08 17:53 | 48.85034 | 3.00453 | 11016 ft | 346 kts | 309° |
| 2026-05-08 17:53 | 48.86659 | 2.97765 | 10780 ft | 341 kts | 310° |
| 2026-05-08 17:53 | 48.88231 | 2.95175 | 10658 ft | 326 kts | 310° |
| 2026-05-08 17:54 | 48.89730 | 2.92698 | 10536 ft | 312 kts | 310° |
| 2026-05-08 17:54 | 48.91169 | 2.90309 | 10415 ft | 300 kts | 310° |
| 2026-05-08 17:54 | 48.92437 | 2.87883 | 10254 ft | 288 kts | 298° |
| 2026-05-08 17:54 | 48.93226 | 2.85156 | 10126 ft | 278 kts | 283° |
| 2026-05-08 17:55 | 48.93535 | 2.82268 | 10019 ft | 276 kts | 270° |
| 2026-05-08 17:55 | 48.93437 | 2.79365 | 9846 ft | 275 kts | 264° |
| 2026-05-08 17:55 | 48.93282 | 2.76475 | 9661 ft | 274 kts | 264° |
| 2026-05-08 17:55 | 48.93128 | 2.73582 | 9484 ft | 274 kts | 264° |
| 2026-05-08 17:56 | 48.92975 | 2.70695 | 9311 ft | 274 kts | 264° |
| 2026-05-08 17:56 | 48.92823 | 2.67824 | 9126 ft | 267 kts | 264° |
| 2026-05-08 17:56 | 48.92679 | 2.65102 | 8899 ft | 250 kts | 264° |
| 2026-05-08 17:56 | 48.92543 | 2.62522 | 8650 ft | 242 kts | 264° |
| 2026-05-08 17:57 | 48.92408 | 2.59981 | 8556 ft | 240 kts | 264° |
| 2026-05-08 17:57 | 48.92272 | 2.57447 | 8476 ft | 241 kts | 264° |
| 2026-05-08 17:57 | 48.92131 | 2.54905 | 8341 ft | 241 kts | 264° |
| 2026-05-08 17:57 | 48.91988 | 2.52372 | 8189 ft | 241 kts | 264° |
| 2026-05-08 17:58 | 48.91848 | 2.49842 | 8038 ft | 240 kts | 264° |
| 2026-05-08 17:58 | 48.91709 | 2.47319 | 7883 ft | 240 kts | 264° |
| 2026-05-08 17:58 | 48.91570 | 2.44789 | 7735 ft | 239 kts | 264° |
| 2026-05-08 17:58 | 48.91432 | 2.42280 | 7581 ft | 238 kts | 264° |
| 2026-05-08 17:59 | 48.91293 | 2.39775 | 7428 ft | 238 kts | 264° |
| 2026-05-08 17:59 | 48.91152 | 2.37264 | 7276 ft | 239 kts | 264° |
| 2026-05-08 17:59 | 48.91010 | 2.34747 | 7126 ft | 239 kts | 264° |
| 2026-05-08 17:59 | 48.90869 | 2.32241 | 6972 ft | 235 kts | 264° |
| 2026-05-08 18:00 | 48.90732 | 2.29798 | 6811 ft | 230 kts | 264° |
| 2026-05-08 18:00 | 48.90460 | 2.24990 | 6519 ft | 223 kts | 264° |
| 2026-05-08 18:00 | 48.90327 | 2.22714 | 6391 ft | 215 kts | 264° |
| 2026-05-08 18:01 | 48.90197 | 2.20489 | 6305 ft | 208 kts | 264° |
| 2026-05-08 18:01 | 48.90071 | 2.18306 | 6168 ft | 205 kts | 264° |
| 2026-05-08 18:01 | 48.89948 | 2.16149 | 6066 ft | 205 kts | 264° |
| 2026-05-08 18:01 | 48.89824 | 2.13986 | 5978 ft | 206 kts | 264° |
| 2026-05-08 18:02 | 48.89701 | 2.11818 | 5888 ft | 206 kts | 264° |
| 2026-05-08 18:02 | 48.89630 | 2.10354 | 5851 ft | 205 kts | 265° |
| 2026-05-08 18:02 | 48.90028 | 2.07599 | 5727 ft | 204 kts | 303° |
| 2026-05-08 18:02 | 48.91059 | 2.06161 | 5672 ft | 204 kts | 334° |
| 2026-05-08 18:03 | 48.92408 | 2.05536 | 5631 ft | 203 kts | 355° |
| 2026-05-08 18:03 | 48.93804 | 2.05620 | 5588 ft | 201 kts | 14° |
| 2026-05-08 18:03 | 48.95093 | 2.06386 | 5548 ft | 199 kts | 33° |
| 2026-05-08 18:03 | 48.96136 | 2.07730 | 5501 ft | 197 kts | 51° |
| 2026-05-08 18:04 | 48.96831 | 2.09499 | 5453 ft | 194 kts | 70° |
| 2026-05-08 18:04 | 48.97113 | 2.11501 | 5413 ft | 194 kts | 86° |
| 2026-05-08 18:04 | 48.97229 | 2.13551 | 5368 ft | 195 kts | 85° |
| 2026-05-08 18:04 | 48.97349 | 2.15607 | 5324 ft | 195 kts | 85° |
| 2026-05-08 18:05 | 48.97467 | 2.17653 | 5163 ft | 193 kts | 85° |
| 2026-05-08 18:05 | 48.97583 | 2.19676 | 4933 ft | 190 kts | 85° |
| 2026-05-08 18:05 | 48.97696 | 2.21658 | 4687 ft | 186 kts | 85° |
| 2026-05-08 18:05 | 48.97806 | 2.23580 | 4440 ft | 178 kts | 84° |
| 2026-05-08 18:06 | 48.97909 | 2.25400 | 4209 ft | 167 kts | 84° |
| 2026-05-08 18:06 | 48.98005 | 2.27088 | 3985 ft | 153 kts | 84° |
| 2026-05-08 18:06 | 48.98093 | 2.28642 | 3792 ft | 141 kts | 84° |
| 2026-05-08 18:06 | 48.98176 | 2.30110 | 3607 ft | 139 kts | 84° |
| 2026-05-08 18:07 | 48.98257 | 2.31551 | 3433 ft | 138 kts | 84° |
| 2026-05-08 18:07 | 48.98339 | 2.33001 | 3253 ft | 137 kts | 84° |
| 2026-05-08 18:07 | 48.98419 | 2.34432 | 3090 ft | 133 kts | 84° |
| 2026-05-08 18:07 | 48.98497 | 2.35831 | 2894 ft | 132 kts | 84° |
| 2026-05-08 18:08 | 48.98575 | 2.37225 | 2716 ft | 132 kts | 83° |
| 2026-05-08 18:08 | 48.98653 | 2.38622 | 2539 ft | 133 kts | 84° |
| 2026-05-08 18:08 | 48.98730 | 2.40012 | 2359 ft | 131 kts | 83° |
| 2026-05-08 18:08 | 48.98807 | 2.41400 | 2180 ft | 131 kts | 84° |
| 2026-05-08 18:09 | 48.98883 | 2.42776 | 2005 ft | 130 kts | 84° |
| 2026-05-08 18:09 | 48.98959 | 2.44160 | 1834 ft | 131 kts | 84° |
| 2026-05-08 18:09 | 48.99035 | 2.45538 | 1647 ft | 131 kts | 84° |
| 2026-05-08 18:09 | 48.99112 | 2.46924 | 1478 ft | 131 kts | 84° |
| 2026-05-08 18:10 | 48.99186 | 2.48294 | 1304 ft | 130 kts | 83° |
| 2026-05-08 18:10 | 48.99262 | 2.49664 | 1122 ft | 131 kts | 84° |
| 2026-05-08 18:10 | 48.99337 | 2.51041 | 945 ft | 130 kts | 83° |
| 2026-05-08 18:10 | 48.99411 | 2.52402 | 764 ft | 129 kts | 84° |
| 2026-05-08 18:11 | 48.99485 | 2.53766 | 602 ft | 129 kts | 83° |
| 2026-05-08 18:11 | 48.99560 | 2.55117 | 402 ft | 128 kts | 83° |
| 2026-05-08 18:11 | 48.99632 | 2.56379 | 362 ft | 103 kts | 86° |
| 2026-05-08 18:11 | 48.99674 | 2.57207 | 355 ft | 54 kts | 85° |
| 2026-05-08 18:12 | 48.99695 | 2.57611 | 352 ft | 38 kts | 85° |
| 2026-05-08 18:12 | 48.99716 | 2.57958 | 359 ft | 31 kts | 81° |
| 2026-05-08 18:12 | 48.99766 | 2.58186 | 357 ft | 19 kts | 66° |
| 2026-05-08 18:12 | 48.99819 | 2.58362 | 360 ft | 15 kts | 65° |
| 2026-05-08 18:13 | 48.99829 | 2.58397 | 356 ft | 0 kts | 65° |
| 2026-05-08 18:13 | 48.99830 | 2.58400 | 357 ft | 2 kts | 65° |
| 2026-05-08 18:13 | 48.99853 | 2.58475 | 358 ft | 13 kts | 65° |
| 2026-05-08 18:14 | 48.99891 | 2.58599 | 357 ft | 8 kts | 65° |
| 2026-05-08 18:14 | 48.99893 | 2.58604 | 356 ft | 0 kts | 65° |
| 2026-05-08 18:15 | 48.99893 | 2.58605 | 356 ft | 1 kts | 65° |
| 2026-05-08 18:15 | 48.99900 | 2.58628 | 355 ft | 4 kts | 65° |
| 2026-05-08 18:15 | 48.99918 | 2.58687 | 362 ft | 8 kts | 65° |
| 2026-05-08 18:16 | 48.99943 | 2.58786 | 354 ft | 12 kts | 74° |
| 2026-05-08 18:16 | 48.99954 | 2.58929 | 354 ft | 15 kts | 86° |
| 2026-05-08 18:16 | 48.99963 | 2.59105 | 354 ft | 13 kts | 84° |
| 2026-05-08 18:16 | 48.99972 | 2.59234 | 354 ft | 7 kts | 85° |
| 2026-05-08 18:17 | 48.99994 | 2.59310 | 357 ft | 10 kts | 33° |
| 2026-05-08 18:17 | 49.00069 | 2.59349 | 358 ft | 13 kts | 22° |
| 2026-05-08 18:17 | 49.00154 | 2.59358 | 354 ft | 10 kts | 356° |
| 2026-05-08 18:17 | 49.00231 | 2.59349 | 362 ft | 12 kts | 355° |
| 2026-05-08 18:18 | 49.00263 | 2.59346 | 354 ft | 2 kts | 5° |
| 2026-05-08 18:18 | 49.00272 | 2.59366 | 361 ft | 4 kts | 60° |
| 2026-05-08 18:18 | 49.00280 | 2.59421 | 358 ft | 7 kts | 84° |
| 2026-05-08 18:18 | 49.00285 | 2.59516 | 354 ft | 8 kts | 85° |
| 2026-05-08 18:19 | 49.00302 | 2.59591 | 358 ft | 9 kts | 46° |
| 2026-05-08 18:19 | 49.00375 | 2.59604 | 354 ft | 13 kts | 356° |
| 2026-05-08 18:19 | 49.00476 | 2.59591 | 356 ft | 16 kts | 355° |
| 2026-05-08 18:19 | 49.00602 | 2.59576 | 354 ft | 20 kts | 355° |
| 2026-05-08 18:20 | 49.00746 | 2.59558 | 354 ft | 22 kts | 355° |
| 2026-05-08 18:20 | 49.00898 | 2.59540 | 354 ft | 18 kts | 355° |
| 2026-05-08 18:20 | 49.00996 | 2.59498 | 357 ft | 16 kts | 305° |
| 2026-05-08 18:20 | 49.00996 | 2.59316 | 358 ft | 19 kts | 265° |
| 2026-05-08 18:21 | 49.00983 | 2.59097 | 355 ft | 22 kts | 258° |
| 2026-05-08 18:21 | 49.00954 | 2.58930 | 359 ft | 16 kts | 259° |
| 2026-05-08 18:21 | 49.00941 | 2.58742 | 355 ft | 19 kts | 265° |
| 2026-05-08 18:21 | 49.00930 | 2.58563 | 355 ft | 13 kts | 264° |
| 2026-05-08 18:22 | 49.00924 | 2.58407 | 359 ft | 16 kts | 264° |
| 2026-05-08 18:22 | 49.00913 | 2.58218 | 357 ft | 20 kts | 266° |
| 2026-05-08 18:22 | 49.00901 | 2.57994 | 355 ft | 23 kts | 264° |
| 2026-05-08 18:22 | 49.00889 | 2.57737 | 358 ft | 24 kts | 265° |
| 2026-05-08 18:23 | 49.00875 | 2.57485 | 360 ft | 23 kts | 265° |
| 2026-05-08 18:23 | 49.00859 | 2.57223 | 355 ft | 27 kts | 264° |
| 2026-05-08 18:23 | 49.00847 | 2.56978 | 355 ft | 22 kts | 265° |
| 2026-05-08 18:23 | 49.00835 | 2.56753 | 355 ft | 16 kts | 265° |
| 2026-05-08 18:24 | 49.00826 | 2.56581 | 355 ft | 13 kts | 265° |
| 2026-05-08 18:24 | 49.00777 | 2.56456 | 357 ft | 15 kts | 201° |
| 2026-05-08 18:24 | 49.00686 | 2.56453 | 355 ft | 11 kts | 181° |
| 2026-05-08 18:24 | 49.00626 | 2.56388 | 359 ft | 12 kts | 248° |
| 2026-05-08 18:25 | 49.00617 | 2.56276 | 355 ft | 9 kts | 266° |
| 2026-05-08 18:25 | 49.00611 | 2.56169 | 355 ft | 11 kts | 265° |
| 2026-05-08 18:25 | 49.00605 | 2.56086 | 358 ft | 4 kts | 260° |
| 2026-05-08 18:25 | 49.00583 | 2.56074 | 356 ft | 3 kts | 178° |
| 2026-05-08 18:26 | 49.00579 | 2.56074 | 356 ft | 0 kts | 174° |
| 2026-05-08 18:26 | 49.00569 | 2.56077 | 355 ft | 3 kts | 169° |
| 2026-05-08 18:26 | 49.00539 | 2.56088 | 358 ft | 5 kts | 165° |
| 2026-05-08 18:27 | 49.00527 | 2.56093 | 355 ft | 1 kts | 165° |
| 2026-05-08 18:27 | 49.00525 | 2.56094 | 355 ft | 0 kts | 165° |